createdAt,value
2022-10-13T00:00:56.158Z,19.10
2022-10-13T00:04:03.303Z,19.23
2022-10-13T00:07:09.895Z,21.93
2022-10-13T00:10:15.960Z,17.87
2022-10-13T00:13:22.762Z,21.87
2022-10-13T00:16:29.606Z,14.10
2022-10-13T00:19:38.595Z,23.38
2022-10-13T00:22:45.634Z,16.77
2022-10-13T00:26:02.879Z,16.37
2022-10-13T00:29:09.674Z,17.32
2022-10-13T00:32:15.529Z,13.88
2022-10-13T00:35:22.701Z,13.28
2022-10-13T00:38:27.572Z,17.20
2022-10-13T00:41:34.324Z,14.05
2022-10-13T00:45:11.353Z,14.30
2022-10-13T00:48:19.322Z,14.15
2022-10-13T00:51:25.836Z,16.70
2022-10-13T00:54:34.983Z,14.38
2022-10-13T00:57:41.213Z,16.15
2022-10-13T01:00:46.839Z,14.13
2022-10-13T01:03:54.566Z,13.68
2022-10-13T01:07:00.598Z,18.37
2022-10-13T01:10:08.559Z,14.75
2022-10-13T01:13:45.614Z,18.23
2022-10-13T01:17:17.531Z,13.88
2022-10-13T01:21:06.683Z,12.10
2022-10-13T01:24:35.852Z,12.47
2022-10-13T01:27:54.899Z,12.85
2022-10-13T01:31:24.536Z,13.15
2022-10-13T01:35:00.122Z,12.28
2022-10-13T01:38:14.875Z,13.10
2022-10-13T01:41:39.027Z,13.90
2022-10-13T01:44:51.015Z,16.60
2022-10-13T01:47:56.106Z,12.40
2022-10-13T01:51:03.014Z,10.40
2022-10-13T01:54:10.752Z,14.38
2022-10-13T01:57:17.207Z,13.93
2022-10-13T02:00:27.416Z,11.85
2022-10-13T02:03:51.970Z,15.60
2022-10-13T02:07:25.294Z,15.28
2022-10-13T02:10:51.355Z,12.00
2022-10-13T02:14:25.720Z,14.15
2022-10-13T02:17:32.767Z,10.70
2022-10-13T02:20:39.652Z,15.35
2022-10-13T02:23:46.202Z,12.25
2022-10-13T02:26:51.945Z,16.40
2022-10-13T02:30:06.806Z,13.38
2022-10-13T02:33:14.207Z,14.90
2022-10-13T02:36:20.809Z,11.83
2022-10-13T02:39:29.010Z,13.22
2022-10-13T02:42:35.354Z,13.70
2022-10-13T02:45:40.687Z,16.00
2022-10-13T02:48:47.015Z,14.65
2022-10-13T02:51:55.828Z,13.00
2022-10-13T02:55:01.604Z,14.28
2022-10-13T02:58:07.759Z,12.00
2022-10-13T03:01:25.107Z,14.83
2022-10-13T03:04:31.995Z,15.25
2022-10-13T03:07:38.075Z,15.25
2022-10-13T03:10:44.045Z,17.35
2022-10-13T03:13:51.246Z,19.50
2022-10-13T03:16:56.399Z,15.32
2022-10-13T03:20:02.272Z,21.00
2022-10-13T03:23:09.345Z,16.42
2022-10-13T03:26:15.204Z,17.95
2022-10-13T03:29:21.767Z,18.60
2022-10-13T03:32:27.696Z,20.48
2022-10-13T03:35:35.089Z,18.37
2022-10-13T03:38:43.847Z,19.80
2022-10-13T03:41:49.992Z,14.30
2022-10-13T03:44:56.703Z,16.05
2022-10-13T03:48:07.058Z,19.42
2022-10-13T03:51:13.406Z,17.25
2022-10-13T03:54:21.495Z,17.73
2022-10-13T03:57:28.463Z,18.70
2022-10-13T04:00:35.722Z,15.03
2022-10-13T04:03:43.450Z,14.20
2022-10-13T04:06:49.459Z,16.93
2022-10-13T04:09:54.745Z,24.20
2022-10-13T04:13:03.061Z,17.17
2022-10-13T04:16:10.449Z,16.40
2022-10-13T04:19:20.341Z,26.10
2022-10-13T04:22:26.223Z,16.67
2022-10-13T04:25:34.358Z,17.62
2022-10-13T04:28:43.462Z,16.77
2022-10-13T04:31:51.953Z,18.00
2022-10-13T04:34:58.669Z,16.42
2022-10-13T04:38:04.817Z,19.40
2022-10-13T04:41:11.126Z,23.57
2022-10-13T04:44:16.613Z,17.10
2022-10-13T04:47:21.857Z,16.37
2022-10-13T04:50:27.233Z,17.37
2022-10-13T04:53:36.148Z,14.75
2022-10-13T04:56:44.805Z,26.02
2022-10-13T04:59:52.455Z,27.05
2022-10-13T05:02:59.762Z,27.07
2022-10-13T05:06:05.969Z,36.50
2022-10-13T05:09:37.654Z,33.78
2022-10-13T05:12:44.583Z,31.62
2022-10-13T05:15:53.580Z,39.73
2022-10-13T05:18:59.497Z,35.52
2022-10-13T05:22:06.049Z,39.08
2022-10-13T05:25:12.724Z,45.45
2022-10-13T05:28:20.127Z,37.00
2022-10-13T05:31:35.569Z,28.10
2022-10-13T05:34:40.722Z,24.77
2022-10-13T05:37:48.886Z,20.82
2022-10-13T05:40:56.926Z,21.45
2022-10-13T05:44:03.634Z,14.43
2022-10-13T05:47:12.416Z,14.60
2022-10-13T05:50:19.523Z,12.78
2022-10-13T05:53:25.111Z,19.30
2022-10-13T05:56:34.201Z,15.93
2022-10-13T05:59:39.463Z,13.55
2022-10-13T06:02:49.371Z,14.85
2022-10-13T06:05:56.123Z,14.73
2022-10-13T06:09:02.784Z,13.85
2022-10-13T06:12:11.133Z,13.45
2022-10-13T06:15:16.887Z,17.05
2022-10-13T06:18:24.539Z,11.30
2022-10-13T06:21:30.280Z,12.30
2022-10-13T06:24:36.782Z,17.82
2022-10-13T06:27:45.947Z,11.33
2022-10-13T06:30:57.842Z,13.40
2022-10-13T06:34:04.762Z,12.40
2022-10-13T06:37:14.351Z,14.70
2022-10-13T06:40:21.590Z,18.32
2022-10-13T06:43:35.713Z,13.45
2022-10-13T06:46:36.781Z,11.00
2022-10-13T06:49:42.987Z,13.70
2022-10-13T06:52:51.455Z,13.85
2022-10-13T06:56:02.506Z,13.83
2022-10-13T06:59:08.413Z,13.18
2022-10-13T07:02:16.558Z,12.47
2022-10-13T07:05:25.499Z,9.23
2022-10-13T07:08:31.494Z,14.73
2022-10-13T07:11:39.175Z,11.57
2022-10-13T07:14:44.110Z,14.38
2022-10-13T07:17:51.233Z,11.75
2022-10-13T07:20:59.129Z,8.73
2022-10-13T07:24:05.458Z,12.45
2022-10-13T07:27:12.382Z,15.48
2022-10-13T07:30:17.706Z,13.48
2022-10-13T07:33:24.614Z,34.50
2022-10-13T07:36:31.339Z,11.43
2022-10-13T07:39:37.703Z,9.40
2022-10-13T07:42:43.793Z,6.60
2022-10-13T07:45:50.585Z,8.05
2022-10-13T07:48:56.358Z,11.22
2022-10-13T07:52:02.454Z,8.95
2022-10-13T07:55:10.102Z,9.35
2022-10-13T07:58:18.508Z,10.50
2022-10-13T08:01:23.596Z,10.03
2022-10-13T08:04:29.347Z,11.22
2022-10-13T08:07:38.870Z,8.73
2022-10-13T08:10:47.073Z,6.35
2022-10-13T08:13:55.656Z,9.45
2022-10-13T08:17:02.050Z,5.95
2022-10-13T08:20:06.972Z,8.78
2022-10-13T08:23:29.216Z,8.98
2022-10-13T08:26:42.101Z,8.13
2022-10-13T08:29:49.640Z,6.33
2022-10-13T08:32:49.475Z,6.25
2022-10-13T08:35:43.877Z,6.42
2022-10-13T08:38:57.324Z,7.95
2022-10-13T08:42:17.159Z,5.40
2022-10-13T08:45:42.716Z,7.60
2022-10-13T08:48:48.552Z,4.72
2022-10-13T08:51:55.706Z,5.67
2022-10-13T08:55:03.594Z,8.23
2022-10-13T08:58:11.770Z,6.35
2022-10-13T09:01:33.707Z,5.87
2022-10-13T09:04:53.581Z,5.65
2022-10-13T09:08:01.557Z,5.67
2022-10-13T09:11:08.116Z,4.80
2022-10-13T09:14:22.041Z,5.25
2022-10-13T09:17:43.304Z,8.98
2022-10-13T09:20:49.299Z,5.08
2022-10-13T09:23:57.735Z,4.12
2022-10-13T09:27:05.297Z,4.15
2022-10-13T09:30:11.611Z,8.43
2022-10-13T09:33:30.329Z,4.67
2022-10-13T09:36:41.364Z,4.58
2022-10-13T09:39:49.257Z,4.60
2022-10-13T09:43:05.998Z,5.30
2022-10-13T09:46:12.728Z,7.62
2022-10-13T09:49:40.681Z,4.85
2022-10-13T09:52:47.764Z,5.17
2022-10-13T09:55:57.015Z,7.20
2022-10-13T09:59:11.114Z,9.73
2022-10-13T10:05:45.154Z,7.00
2022-10-13T10:09:27.465Z,8.18
2022-10-13T10:12:36.178Z,5.05
2022-10-13T10:16:03.408Z,4.75
2022-10-13T10:19:38.286Z,5.40
2022-10-13T10:22:59.744Z,4.45
2022-10-13T10:26:19.387Z,5.35
2022-10-13T10:29:35.503Z,4.33
2022-10-13T10:32:51.513Z,7.37
2022-10-13T10:36:08.865Z,4.45
2022-10-13T10:39:39.715Z,6.08
2022-10-13T10:43:13.217Z,4.35
2022-10-13T10:46:20.012Z,3.40
2022-10-13T10:49:47.094Z,4.60
2022-10-13T10:53:12.742Z,3.50
2022-10-13T10:56:23.271Z,8.70
2022-10-13T10:59:49.985Z,4.20
2022-10-13T11:03:08.296Z,4.45
2022-10-13T11:06:19.640Z,3.50
2022-10-13T11:09:25.079Z,3.15
2022-10-13T11:12:39.317Z,5.60
2022-10-13T11:15:57.869Z,5.15
2022-10-13T11:19:14.599Z,7.55
2022-10-13T11:22:27.137Z,7.90
2022-10-13T11:25:54.559Z,9.88
2022-10-13T11:29:01.076Z,3.83
2022-10-13T11:32:09.345Z,4.42
2022-10-13T11:35:32.365Z,12.98
2022-10-13T11:38:44.236Z,6.65
2022-10-13T11:42:07.891Z,4.25
2022-10-13T11:45:40.130Z,6.30
2022-10-13T11:49:14.926Z,8.30
2022-10-13T11:52:38.573Z,8.35
2022-10-13T11:56:01.949Z,6.75
2022-10-13T11:59:08.109Z,5.58
2022-10-13T12:02:30.617Z,3.98
2022-10-13T12:05:39.567Z,3.47
2022-10-13T12:08:48.771Z,4.92
2022-10-13T12:11:55.672Z,5.35
2022-10-13T12:15:06.927Z,4.28
2022-10-13T12:18:12.440Z,3.90
2022-10-13T12:21:30.671Z,6.87
2022-10-13T12:24:40.599Z,1.32
2022-10-13T12:27:49.789Z,2.62
2022-10-13T12:30:56.859Z,2.33
2022-10-13T12:34:08.041Z,3.15
2022-10-13T12:37:30.473Z,4.17
2022-10-13T12:40:35.881Z,2.92
2022-10-13T12:43:43.753Z,3.10
2022-10-13T12:47:12.075Z,5.40
2022-10-13T12:50:42.415Z,5.50
2022-10-13T12:53:49.410Z,4.53
2022-10-13T12:56:57.858Z,3.40
2022-10-13T13:00:06.869Z,3.98
2022-10-13T13:03:16.917Z,4.33
2022-10-13T13:06:30.552Z,4.50
2022-10-13T13:09:38.433Z,6.35
2022-10-13T13:12:47.008Z,4.80
2022-10-13T13:15:54.554Z,5.35
2022-10-13T13:19:04.148Z,5.58
2022-10-13T13:22:12.289Z,4.28
2022-10-13T13:25:18.576Z,8.48
2022-10-13T13:28:28.482Z,5.22
2022-10-13T13:31:36.216Z,8.18
2022-10-13T13:34:43.926Z,3.83
2022-10-13T13:38:04.829Z,5.55
2022-10-13T13:41:12.104Z,7.72
2022-10-13T13:44:18.362Z,4.10
2022-10-13T13:47:32.993Z,6.05
2022-10-13T13:50:41.800Z,4.75
2022-10-13T13:53:47.857Z,6.45
2022-10-13T13:56:58.598Z,3.55
2022-10-13T14:00:06.905Z,6.50
2022-10-13T14:03:19.138Z,4.35
2022-10-13T14:06:23.982Z,11.28
2022-10-13T14:09:31.242Z,3.92
2022-10-13T14:12:38.545Z,2.87
2022-10-13T14:15:44.697Z,4.83
2022-10-13T14:18:49.800Z,4.87
2022-10-13T14:21:58.071Z,10.28
2022-10-13T14:25:04.429Z,4.20
2022-10-13T14:28:14.504Z,5.67
2022-10-13T14:31:20.853Z,10.58
2022-10-13T14:34:27.703Z,7.00
2022-10-13T14:37:35.562Z,5.28
2022-10-13T14:40:42.248Z,9.68
2022-10-13T14:43:50.282Z,8.63
2022-10-13T14:46:57.563Z,7.53
2022-10-13T14:50:02.723Z,8.48
2022-10-13T14:53:08.638Z,8.20
2022-10-13T14:56:14.155Z,8.45
2022-10-13T14:59:25.686Z,12.68
2022-10-13T15:02:33.380Z,16.35
2022-10-13T15:05:39.559Z,14.55
2022-10-13T15:08:44.776Z,17.25
2022-10-13T15:11:53.569Z,19.80
2022-10-13T15:15:01.882Z,21.33
2022-10-13T15:18:09.577Z,25.97
2022-10-13T15:21:15.296Z,29.15
2022-10-13T15:24:26.250Z,23.45
2022-10-13T15:27:36.887Z,24.85
2022-10-13T15:30:41.888Z,16.73
2022-10-13T15:33:48.767Z,26.45
2022-10-13T15:36:55.983Z,33.92
2022-10-13T15:40:03.886Z,36.70
2022-10-13T15:43:10.293Z,43.42
2022-10-13T15:46:18.209Z,44.42
2022-10-13T15:49:23.884Z,47.75
2022-10-13T15:52:34.772Z,89.55
2022-10-13T15:55:39.127Z,241.35
2022-10-13T15:58:44.732Z,231.85
2022-10-13T16:01:51.206Z,215.50
2022-10-13T16:04:58.049Z,126.72
2022-10-13T16:08:05.760Z,259.07
2022-10-13T16:11:11.905Z,229.13
2022-10-13T16:14:19.561Z,228.05
2022-10-13T16:17:26.109Z,240.85
2022-10-13T16:20:33.539Z,253.60
2022-10-13T16:23:38.418Z,242.20
2022-10-13T16:26:44.989Z,217.30
2022-10-13T16:29:50.011Z,176.97
2022-10-13T16:32:55.217Z,101.47
2022-10-13T16:36:00.837Z,154.03
2022-10-13T16:39:08.899Z,157.43
2022-10-13T16:42:15.148Z,149.12
2022-10-13T16:45:35.448Z,129.57
2022-10-13T16:48:28.716Z,116.20
2022-10-13T16:51:37.525Z,115.72
2022-10-13T16:54:45.095Z,141.90
2022-10-13T16:57:51.580Z,249.25
2022-10-13T17:00:57.013Z,196.22
2022-10-13T17:04:03.087Z,221.28
2022-10-13T17:07:10.360Z,264.95
2022-10-13T17:10:16.054Z,308.07
2022-10-13T17:13:23.503Z,326.65
2022-10-13T17:16:30.272Z,333.80
2022-10-13T17:19:38.602Z,282.07
2022-10-13T17:22:45.255Z,240.47
2022-10-13T17:25:51.703Z,231.35
2022-10-13T17:28:59.644Z,248.05
2022-10-13T17:32:08.535Z,197.55
2022-10-13T17:35:14.371Z,197.47
2022-10-13T17:38:20.871Z,178.82
2022-10-13T17:41:26.368Z,166.18
2022-10-13T17:44:32.708Z,150.20
2022-10-13T17:47:39.473Z,152.60
2022-10-13T17:50:47.213Z,143.07
2022-10-13T17:53:54.832Z,137.05
2022-10-13T17:57:02.145Z,128.62
2022-10-13T18:00:08.566Z,124.02
2022-10-13T18:03:16.867Z,136.03
2022-10-13T18:06:23.679Z,122.22
2022-10-13T18:09:35.992Z,130.18
2022-10-13T18:12:42.661Z,111.40
2022-10-13T18:15:54.022Z,110.25
2022-10-13T18:19:01.454Z,84.55
2022-10-13T18:22:09.314Z,82.35
2022-10-13T18:25:16.550Z,87.57
2022-10-13T18:28:23.395Z,92.88
2022-10-13T18:31:35.836Z,178.45
2022-10-13T18:34:41.193Z,184.48
2022-10-13T18:37:48.326Z,159.43
2022-10-13T18:40:55.001Z,168.37
2022-10-13T18:44:01.957Z,134.20
2022-10-13T18:47:08.480Z,120.15
2022-10-13T18:50:16.007Z,111.68
2022-10-13T18:53:22.769Z,106.58
2022-10-13T18:56:36.674Z,82.82
2022-10-13T18:59:45.490Z,81.00
2022-10-13T19:02:53.481Z,84.13
2022-10-13T19:06:00.449Z,89.90
2022-10-13T19:09:14.409Z,74.30
2022-10-13T19:12:20.232Z,61.28
2022-10-13T19:15:28.841Z,47.45
2022-10-13T19:18:37.067Z,50.25
2022-10-13T19:21:43.835Z,44.70
2022-10-13T19:24:49.262Z,39.50
2022-10-13T19:27:59.781Z,35.03
2022-10-13T19:31:06.353Z,39.23
2022-10-13T19:34:14.134Z,39.03
2022-10-13T19:37:24.354Z,35.95
2022-10-13T19:40:31.781Z,36.60
2022-10-13T19:43:37.767Z,33.13
2022-10-13T19:46:44.178Z,36.65
2022-10-13T19:49:54.880Z,38.80
2022-10-13T19:53:03.154Z,35.58
2022-10-13T19:56:09.806Z,44.05
2022-10-13T19:59:17.358Z,44.05
2022-10-13T20:02:27.659Z,50.98
2022-10-13T20:05:33.538Z,64.92
2022-10-13T20:08:39.733Z,42.95
2022-10-13T20:11:45.393Z,29.42
2022-10-13T20:14:50.909Z,31.48
2022-10-13T20:17:57.068Z,32.93
2022-10-13T20:21:04.574Z,31.07
2022-10-13T20:24:11.123Z,28.42
2022-10-13T20:27:16.205Z,28.45
2022-10-13T20:30:22.333Z,27.50
2022-10-13T20:33:28.800Z,35.17
2022-10-13T20:36:38.798Z,28.40
2022-10-13T20:39:42.709Z,25.60
2022-10-13T20:42:49.421Z,31.23
2022-10-13T20:45:57.219Z,27.67
2022-10-13T20:49:13.458Z,27.73
2022-10-13T20:52:14.226Z,30.70
2022-10-13T20:55:22.422Z,21.10
2022-10-13T20:58:27.870Z,24.20
2022-10-13T21:01:34.814Z,23.00
2022-10-13T21:04:43.786Z,23.20
2022-10-13T21:07:50.690Z,23.57
2022-10-13T21:10:56.598Z,25.45
2022-10-13T21:14:03.855Z,24.18
2022-10-13T21:17:11.473Z,24.90
2022-10-13T21:20:17.501Z,31.80
2022-10-13T21:23:24.277Z,25.48
2022-10-13T21:26:31.140Z,26.93
2022-10-13T21:29:39.271Z,40.48
2022-10-13T21:32:45.771Z,33.95
2022-10-13T21:35:52.200Z,35.75
2022-10-13T21:38:58.285Z,39.42
2022-10-13T21:42:04.084Z,46.70
2022-10-13T21:45:09.650Z,39.73
2022-10-13T21:48:16.777Z,43.87
2022-10-13T21:51:42.304Z,42.83
2022-10-13T21:54:48.161Z,44.42
2022-10-13T21:57:53.625Z,27.62
2022-10-13T22:01:01.558Z,26.80
2022-10-13T22:04:10.711Z,27.40
2022-10-13T22:07:18.950Z,33.58
2022-10-13T22:10:25.421Z,18.77
2022-10-13T22:13:31.347Z,21.60
2022-10-13T22:16:41.088Z,18.07
2022-10-13T22:19:47.901Z,22.37
2022-10-13T22:22:53.463Z,23.62
2022-10-13T22:26:00.610Z,26.55
2022-10-13T22:29:09.713Z,40.05
2022-10-13T22:32:17.017Z,41.75
2022-10-13T22:35:25.174Z,45.10
2022-10-13T22:38:30.536Z,48.78
2022-10-13T22:41:37.320Z,50.43
2022-10-13T22:44:43.286Z,53.87
2022-10-13T22:47:50.093Z,44.58
2022-10-13T22:50:57.157Z,51.85
2022-10-13T22:54:05.182Z,52.38
2022-10-13T22:57:11.974Z,46.73
2022-10-13T23:00:20.415Z,51.77
2022-10-13T23:03:30.956Z,52.35
2022-10-13T23:06:42.293Z,49.93
2022-10-13T23:09:47.475Z,35.98
2022-10-13T23:12:53.025Z,35.40
2022-10-13T23:15:59.041Z,37.28
2022-10-13T23:19:06.571Z,33.23
2022-10-13T23:22:13.564Z,33.95
2022-10-13T23:25:19.516Z,45.80
2022-10-13T23:28:24.715Z,77.53
2022-10-13T23:31:32.954Z,82.78
2022-10-13T23:34:39.856Z,81.67
2022-10-13T23:37:45.577Z,69.95
2022-10-13T23:40:51.334Z,52.55
2022-10-13T23:43:57.272Z,72.15
2022-10-13T23:47:03.510Z,43.35
2022-10-13T23:50:10.659Z,27.65
2022-10-13T23:53:17.046Z,27.25
2022-10-13T23:56:22.577Z,26.00
2022-10-13T23:59:29.153Z,20.10
